TimeEST,TemperatureF,Dew PointF,Humidity,Sea Level PressureIn,VisibilityMPH,Wind Direction,Wind SpeedMPH,Gust SpeedMPH,PrecipitationIn,Events,Conditions,WindDirDegrees,DateUTC
12:15 AM,37.4,26.6,65,29.97,10.0,Calm,Calm,-,N/A,,Overcast,0,2013-03-06 05:15:00
12:35 AM,39.2,26.6,61,29.97,10.0,Calm,Calm,-,N/A,,Overcast,0,2013-03-06 05:35:00
12:55 AM,37.4,28.4,70,29.96,10.0,Calm,Calm,-,N/A,,Overcast,0,2013-03-06 05:55:00
1:15 AM,39.2,26.6,61,29.96,10.0,Calm,Calm,-,N/A,,Overcast,0,2013-03-06 06:15:00
1:35 AM,39.2,26.6,61,29.96,10.0,Calm,Calm,-,N/A,,Overcast,0,2013-03-06 06:35:00
1:55 AM,39.2,26.6,61,29.95,10.0,Calm,Calm,-,N/A,,Overcast,0,2013-03-06 06:55:00
2:15 AM,39.2,26.6,61,29.94,10.0,NE,4.6,-,N/A,,Overcast,40,2013-03-06 07:15:00
2:35 AM,39.2,28.4,65,29.93,10.0,ENE,4.6,-,N/A,,Overcast,60,2013-03-06 07:35:00
2:55 AM,41.0,30.2,65,29.92,10.0,ENE,5.8,-,N/A,,Overcast,60,2013-03-06 07:55:00
3:15 AM,41.0,30.2,65,29.91,10.0,ENE,11.5,-,N/A,,Overcast,60,2013-03-06 08:15:00
3:35 AM,41.0,30.2,65,29.90,10.0,ENE,8.1,17.3,N/A,,Overcast,70,2013-03-06 08:35:00
3:55 AM,41.0,30.2,65,29.90,10.0,ENE,10.4,19.6,N/A,,Mostly Cloudy,70,2013-03-06 08:55:00
4:15 AM,41.0,30.2,65,29.91,10.0,ENE,10.4,-,N/A,,Mostly Cloudy,60,2013-03-06 09:15:00
4:35 AM,41.0,30.2,65,29.91,10.0,ENE,10.4,16.1,N/A,,Overcast,70,2013-03-06 09:35:00
4:55 AM,41.0,30.2,65,29.91,10.0,East,9.2,18.4,N/A,,Overcast,80,2013-03-06 09:55:00
5:15 AM,41.0,32.0,70,29.90,10.0,ENE,12.7,23.0,N/A,,Overcast,70,2013-03-06 10:15:00
5:35 AM,41.0,32.0,70,29.90,10.0,ENE,11.5,16.1,N/A,,Overcast,70,2013-03-06 10:35:00
6:45 AM,39.2,32.0,75,29.90,8.0,East,18.4,31.1,N/A,,Overcast,80,2013-03-06 11:45:00
7:45 AM,39.2,32.0,75,29.89,9.0,East,24.2,34.5,N/A,,Overcast,90,2013-03-06 12:45:00
8:45 AM,39.2,32.0,75,29.90,9.0,East,16.1,31.1,N/A,,Overcast,90,2013-03-06 13:45:00
9:45 AM,41.0,32.0,70,29.89,10.0,East,18.4,33.4,N/A,,Overcast,80,2013-03-06 14:45:00
10:45 AM,41.0,32.0,70,29.89,10.0,East,26.5,40.3,N/A,,Overcast,90,2013-03-06 15:45:00
11:45 AM,41.0,32.0,70,29.89,10.0,East,26.5,42.6,N/A,,Overcast,90,2013-03-06 16:45:00
12:45 PM,42.8,30.2,61,29.86,10.0,East,32.2,47.2,N/A,,Overcast,80,2013-03-06 17:45:00
1:45 PM,42.8,30.2,61,29.87,10.0,East,26.5,40.3,N/A,,Overcast,80,2013-03-06 18:45:00
2:45 PM,41.0,33.8,76,29.87,7.0,East,16.1,28.8,N/A,,Light Drizzle,80,2013-03-06 19:45:00
3:45 PM,41.0,30.2,65,29.87,7.0,NE,17.3,28.8,N/A,,Overcast,50,2013-03-06 20:45:00
4:45 PM,41.0,28.4,61,29.89,7.0,NE,13.8,27.6,N/A,,Overcast,40,2013-03-06 21:45:00
5:45 PM,41.0,26.6,57,29.90,10.0,NE,18.4,28.8,N/A,,Overcast,40,2013-03-06 22:45:00
6:45 PM,41.0,26.6,57,29.92,10.0,NE,21.9,36.8,N/A,,Overcast,40,2013-03-06 23:45:00
7:45 PM,39.2,26.6,61,29.94,10.0,NE,17.3,27.6,N/A,,Overcast,40,2013-03-07 00:45:00
8:45 PM,37.4,28.4,70,29.95,10.0,ENE,15.0,31.1,N/A,,Overcast,60,2013-03-07 01:45:00
9:45 PM,37.4,28.4,70,29.96,10.0,NE,16.1,32.2,N/A,,Mostly Cloudy,50,2013-03-07 02:45:00
9:55 PM,39.2,30.2,70,29.94,10.0,NNE,13.8,21.9,N/A,,Overcast,20,2013-03-07 02:55:00
10:15 PM,39.2,28.4,65,29.95,10.0,NNE,16.1,25.3,N/A,,Overcast,20,2013-03-07 03:15:00
10:35 PM,39.2,26.6,61,29.95,10.0,NNE,18.4,23.0,N/A,,Overcast,20,2013-03-07 03:35:00
10:55 PM,41.0,26.6,57,29.95,10.0,NNE,13.8,24.2,N/A,,Overcast,20,2013-03-07 03:55:00
11:15 PM,39.2,26.6,61,29.95,10.0,NNE,13.8,24.2,N/A,,Mostly Cloudy,20,2013-03-07 04:15:00
11:35 PM,39.2,26.6,61,29.95,10.0,NNE,16.1,21.9,N/A,,Overcast,20,2013-03-07 04:35:00
11:55 PM,39.2,26.6,61,29.95,10.0,NNE,15.0,23.0,N/A,,Overcast,20,2013-03-07 04:55:00